sensor_id;sensor_type;location;lat;lon;timestamp;P1;durP1;ratioP1;P2;durP2;ratioP2
70467;SDS011;57934;51.532;7.684;2023-03-05T00:01:08;6.05;;;1.85;;
70467;SDS011;57934;51.532;7.684;2023-03-05T00:03:36;10.25;;;1.80;;
70467;SDS011;57934;51.532;7.684;2023-03-05T00:06:02;4.43;;;1.48;;
70467;SDS011;57934;51.532;7.684;2023-03-05T00:08:29;9.80;;;2.25;;
70467;SDS011;57934;51.532;7.684;2023-03-05T00:10:59;8.50;;;1.80;;
70467;SDS011;57934;51.532;7.684;2023-03-05T00:13:27;6.22;;;1.88;;
70467;SDS011;57934;51.532;7.684;2023-03-05T00:15:53;7.85;;;1.92;;
70467;SDS011;57934;51.532;7.684;2023-03-05T00:18:20;5.63;;;2.10;;
70467;SDS011;57934;51.532;7.684;2023-03-05T00:20:47;5.75;;;1.90;;
70467;SDS011;57934;51.532;7.684;2023-03-05T00:23:13;8.60;;;1.90;;
70467;SDS011;57934;51.532;7.684;2023-03-05T00:25:39;4.00;;;1.50;;
70467;SDS011;57934;51.532;7.684;2023-03-05T00:28:06;6.05;;;2.33;;
70467;SDS011;57934;51.532;7.684;2023-03-05T00:30:33;7.90;;;1.70;;
70467;SDS011;57934;51.532;7.684;2023-03-05T00:33:00;10.18;;;1.92;;
70467;SDS011;57934;51.532;7.684;2023-03-05T00:35:26;10.13;;;2.50;;
70467;SDS011;57934;51.532;7.684;2023-03-05T00:37:53;8.38;;;1.98;;
70467;SDS011;57934;51.532;7.684;2023-03-05T00:40:19;7.22;;;1.77;;
70467;SDS011;57934;51.532;7.684;2023-03-05T00:42:45;7.25;;;2.15;;
70467;SDS011;57934;51.532;7.684;2023-03-05T00:45:11;10.90;;;1.95;;
70467;SDS011;57934;51.532;7.684;2023-03-05T00:47:38;8.75;;;2.60;;
70467;SDS011;57934;51.532;7.684;2023-03-05T00:50:04;12.23;;;2.30;;
70467;SDS011;57934;51.532;7.684;2023-03-05T00:52:31;10.18;;;2.10;;
70467;SDS011;57934;51.532;7.684;2023-03-05T00:54:58;10.05;;;2.33;;
70467;SDS011;57934;51.532;7.684;2023-03-05T00:57:24;10.82;;;1.70;;
70467;SDS011;57934;51.532;7.684;2023-03-05T00:59:50;11.70;;;2.30;;
70467;SDS011;57934;51.532;7.684;2023-03-05T01:02:16;7.57;;;1.55;;
70467;SDS011;57934;51.532;7.684;2023-03-05T01:04:42;10.50;;;2.00;;
70467;SDS011;57934;51.532;7.684;2023-03-05T01:07:11;7.72;;;2.60;;
70467;SDS011;57934;51.532;7.684;2023-03-05T01:09:38;9.88;;;1.90;;
70467;SDS011;57934;51.532;7.684;2023-03-05T01:12:04;7.25;;;1.80;;
70467;SDS011;57934;51.532;7.684;2023-03-05T01:14:30;11.70;;;2.67;;
70467;SDS011;57934;51.532;7.684;2023-03-05T01:16:57;11.10;;;2.38;;
70467;SDS011;57934;51.532;7.684;2023-03-05T01:19:23;12.95;;;2.28;;
70467;SDS011;57934;51.532;7.684;2023-03-05T01:21:49;9.68;;;2.53;;
70467;SDS011;57934;51.532;7.684;2023-03-05T01:24:15;10.45;;;2.30;;
70467;SDS011;57934;51.532;7.684;2023-03-05T01:26:41;8.07;;;2.38;;
70467;SDS011;57934;51.532;7.684;2023-03-05T01:29:07;13.48;;;2.42;;
70467;SDS011;57934;51.532;7.684;2023-03-05T01:31:33;12.63;;;2.95;;
70467;SDS011;57934;51.532;7.684;2023-03-05T01:33:59;10.93;;;2.70;;
70467;SDS011;57934;51.532;7.684;2023-03-05T01:36:25;11.40;;;2.38;;
70467;SDS011;57934;51.532;7.684;2023-03-05T01:38:51;11.68;;;2.53;;
70467;SDS011;57934;51.532;7.684;2023-03-05T01:41:17;11.95;;;2.55;;
70467;SDS011;57934;51.532;7.684;2023-03-05T01:43:45;6.05;;;2.38;;
70467;SDS011;57934;51.532;7.684;2023-03-05T01:54:41;12.32;;;2.47;;
70467;SDS011;57934;51.532;7.684;2023-03-05T01:57:13;11.20;;;3.38;;
70467;SDS011;57934;51.532;7.684;2023-03-05T01:59:43;12.07;;;2.55;;
70467;SDS011;57934;51.532;7.684;2023-03-05T02:02:13;10.05;;;2.50;;
70467;SDS011;57934;51.532;7.684;2023-03-05T02:04:44;8.90;;;2.63;;
70467;SDS011;57934;51.532;7.684;2023-03-05T02:07:13;15.18;;;2.80;;
70467;SDS011;57934;51.532;7.684;2023-03-05T02:09:40;7.93;;;2.97;;
70467;SDS011;57934;51.532;7.684;2023-03-05T02:12:07;7.15;;;2.78;;
70467;SDS011;57934;51.532;7.684;2023-03-05T02:14:35;9.98;;;3.05;;
70467;SDS011;57934;51.532;7.684;2023-03-05T02:17:04;16.30;;;3.22;;
70467;SDS011;57934;51.532;7.684;2023-03-05T02:19:44;11.85;;;2.85;;
70467;SDS011;57934;51.532;7.684;2023-03-05T02:22:18;13.40;;;3.25;;
70467;SDS011;57934;51.532;7.684;2023-03-05T02:24:46;10.45;;;3.05;;
70467;SDS011;57934;51.532;7.684;2023-03-05T02:27:13;11.70;;;3.10;;
70467;SDS011;57934;51.532;7.684;2023-03-05T02:29:41;12.80;;;2.58;;
70467;SDS011;57934;51.532;7.684;2023-03-05T02:32:10;10.52;;;2.80;;
70467;SDS011;57934;51.532;7.684;2023-03-05T02:34:37;13.32;;;3.25;;
70467;SDS011;57934;51.532;7.684;2023-03-05T02:37:03;14.40;;;2.88;;
70467;SDS011;57934;51.532;7.684;2023-03-05T02:39:34;10.60;;;3.53;;
70467;SDS011;57934;51.532;7.684;2023-03-05T02:42:01;15.52;;;3.30;;
70467;SDS011;57934;51.532;7.684;2023-03-05T02:44:28;12.57;;;3.70;;
70467;SDS011;57934;51.532;7.684;2023-03-05T02:46:54;12.02;;;3.58;;
70467;SDS011;57934;51.532;7.684;2023-03-05T02:49:20;12.25;;;3.25;;
70467;SDS011;57934;51.532;7.684;2023-03-05T02:51:46;15.20;;;4.00;;
70467;SDS011;57934;51.532;7.684;2023-03-05T02:54:12;13.60;;;3.10;;
70467;SDS011;57934;51.532;7.684;2023-03-05T02:56:39;11.88;;;3.33;;
70467;SDS011;57934;51.532;7.684;2023-03-05T02:59:05;7.35;;;2.90;;
70467;SDS011;57934;51.532;7.684;2023-03-05T03:01:31;11.50;;;2.88;;
70467;SDS011;57934;51.532;7.684;2023-03-05T03:03:57;13.48;;;3.25;;
70467;SDS011;57934;51.532;7.684;2023-03-05T03:06:24;9.93;;;2.88;;
70467;SDS011;57934;51.532;7.684;2023-03-05T03:08:51;14.85;;;3.97;;
70467;SDS011;57934;51.532;7.684;2023-03-05T03:11:17;11.20;;;3.42;;
70467;SDS011;57934;51.532;7.684;2023-03-05T03:13:43;11.73;;;4.20;;
70467;SDS011;57934;51.532;7.684;2023-03-05T03:16:10;11.75;;;3.72;;
70467;SDS011;57934;51.532;7.684;2023-03-05T03:18:38;8.57;;;3.50;;
70467;SDS011;57934;51.532;7.684;2023-03-05T03:21:04;11.35;;;3.60;;
70467;SDS011;57934;51.532;7.684;2023-03-05T03:23:30;13.32;;;3.97;;
70467;SDS011;57934;51.532;7.684;2023-03-05T03:25:57;20.73;;;4.40;;
70467;SDS011;57934;51.532;7.684;2023-03-05T03:28:24;11.23;;;3.58;;
70467;SDS011;57934;51.532;7.684;2023-03-05T03:30:50;13.80;;;4.13;;
70467;SDS011;57934;51.532;7.684;2023-03-05T03:33:16;14.52;;;3.75;;
70467;SDS011;57934;51.532;7.684;2023-03-05T03:35:46;10.88;;;3.85;;
70467;SDS011;57934;51.532;7.684;2023-03-05T03:38:12;9.98;;;3.85;;
70467;SDS011;57934;51.532;7.684;2023-03-05T03:40:39;12.90;;;3.78;;
70467;SDS011;57934;51.532;7.684;2023-03-05T03:43:06;13.85;;;4.03;;
70467;SDS011;57934;51.532;7.684;2023-03-05T03:45:33;8.75;;;3.47;;
70467;SDS011;57934;51.532;7.684;2023-03-05T03:47:59;18.25;;;3.90;;
70467;SDS011;57934;51.532;7.684;2023-03-05T03:50:25;7.85;;;3.03;;
70467;SDS011;57934;51.532;7.684;2023-03-05T03:52:51;11.35;;;3.20;;
70467;SDS011;57934;51.532;7.684;2023-03-05T03:55:17;9.27;;;2.90;;
70467;SDS011;57934;51.532;7.684;2023-03-05T03:57:43;9.98;;;2.80;;
70467;SDS011;57934;51.532;7.684;2023-03-05T04:00:09;11.25;;;2.70;;
70467;SDS011;57934;51.532;7.684;2023-03-05T04:02:39;11.70;;;2.67;;
70467;SDS011;57934;51.532;7.684;2023-03-05T04:05:05;15.25;;;2.42;;
70467;SDS011;57934;51.532;7.684;2023-03-05T04:07:32;9.57;;;2.03;;
70467;SDS011;57934;51.532;7.684;2023-03-05T04:09:58;8.07;;;2.08;;
70467;SDS011;57934;51.532;7.684;2023-03-05T04:12:23;9.93;;;2.25;;
70467;SDS011;57934;51.532;7.684;2023-03-05T04:14:49;9.65;;;2.15;;
70467;SDS011;57934;51.532;7.684;2023-03-05T04:17:16;7.45;;;2.20;;
70467;SDS011;57934;51.532;7.684;2023-03-05T04:19:42;9.32;;;2.33;;
70467;SDS011;57934;51.532;7.684;2023-03-05T04:22:09;11.13;;;2.70;;
70467;SDS011;57934;51.532;7.684;2023-03-05T04:24:38;12.45;;;2.90;;
70467;SDS011;57934;51.532;7.684;2023-03-05T04:27:04;10.90;;;3.40;;
70467;SDS011;57934;51.532;7.684;2023-03-05T04:29:31;12.43;;;3.20;;
70467;SDS011;57934;51.532;7.684;2023-03-05T04:31:58;13.50;;;4.25;;
70467;SDS011;57934;51.532;7.684;2023-03-05T04:34:24;12.48;;;4.53;;
70467;SDS011;57934;51.532;7.684;2023-03-05T04:36:50;17.33;;;5.85;;
70467;SDS011;57934;51.532;7.684;2023-03-05T04:39:16;16.88;;;6.43;;
70467;SDS011;57934;51.532;7.684;2023-03-05T04:41:46;13.00;;;6.80;;
70467;SDS011;57934;51.532;7.684;2023-03-05T04:44:13;13.10;;;6.57;;
70467;SDS011;57934;51.532;7.684;2023-03-05T04:46:39;16.17;;;6.53;;
70467;SDS011;57934;51.532;7.684;2023-03-05T04:49:05;19.70;;;6.90;;
70467;SDS011;57934;51.532;7.684;2023-03-05T04:51:31;13.60;;;7.50;;
70467;SDS011;57934;51.532;7.684;2023-03-05T04:53:57;15.90;;;7.35;;
70467;SDS011;57934;51.532;7.684;2023-03-05T04:56:23;17.45;;;8.50;;
70467;SDS011;57934;51.532;7.684;2023-03-05T04:58:49;18.05;;;8.68;;
70467;SDS011;57934;51.532;7.684;2023-03-05T05:01:15;15.88;;;8.07;;
70467;SDS011;57934;51.532;7.684;2023-03-05T05:03:41;14.80;;;7.50;;
70467;SDS011;57934;51.532;7.684;2023-03-05T05:06:07;15.63;;;7.60;;
70467;SDS011;57934;51.532;7.684;2023-03-05T05:08:34;17.05;;;7.07;;
70467;SDS011;57934;51.532;7.684;2023-03-05T05:11:02;14.85;;;6.43;;
70467;SDS011;57934;51.532;7.684;2023-03-05T05:13:31;14.32;;;7.03;;
70467;SDS011;57934;51.532;7.684;2023-03-05T05:15:58;15.60;;;6.57;;
70467;SDS011;57934;51.532;7.684;2023-03-05T05:18:25;16.77;;;6.63;;
70467;SDS011;57934;51.532;7.684;2023-03-05T05:20:51;14.52;;;7.20;;
70467;SDS011;57934;51.532;7.684;2023-03-05T05:23:17;16.35;;;8.07;;
70467;SDS011;57934;51.532;7.684;2023-03-05T05:25:44;15.68;;;7.47;;
70467;SDS011;57934;51.532;7.684;2023-03-05T05:28:10;26.05;;;8.20;;
70467;SDS011;57934;51.532;7.684;2023-03-05T05:30:37;21.33;;;8.23;;
70467;SDS011;57934;51.532;7.684;2023-03-05T05:33:03;25.27;;;9.25;;
70467;SDS011;57934;51.532;7.684;2023-03-05T05:35:29;19.75;;;9.60;;
70467;SDS011;57934;51.532;7.684;2023-03-05T05:37:55;20.98;;;10.43;;
70467;SDS011;57934;51.532;7.684;2023-03-05T05:40:21;22.67;;;11.82;;
70467;SDS011;57934;51.532;7.684;2023-03-05T05:42:47;26.08;;;13.65;;
70467;SDS011;57934;51.532;7.684;2023-03-05T05:45:13;27.42;;;13.60;;
70467;SDS011;57934;51.532;7.684;2023-03-05T05:47:39;30.58;;;15.48;;
70467;SDS011;57934;51.532;7.684;2023-03-05T05:50:05;32.33;;;16.25;;
70467;SDS011;57934;51.532;7.684;2023-03-05T05:52:32;25.73;;;16.10;;
70467;SDS011;57934;51.532;7.684;2023-03-05T05:54:58;32.17;;;16.25;;
70467;SDS011;57934;51.532;7.684;2023-03-05T05:57:24;30.55;;;15.70;;
70467;SDS011;57934;51.532;7.684;2023-03-05T05:59:50;30.48;;;16.98;;
70467;SDS011;57934;51.532;7.684;2023-03-05T06:02:16;25.48;;;15.45;;
70467;SDS011;57934;51.532;7.684;2023-03-05T06:04:42;36.58;;;16.23;;
70467;SDS011;57934;51.532;7.684;2023-03-05T06:07:08;32.20;;;16.13;;
70467;SDS011;57934;51.532;7.684;2023-03-05T06:09:34;34.75;;;17.88;;
70467;SDS011;57934;51.532;7.684;2023-03-05T06:12:01;36.35;;;18.33;;
70467;SDS011;57934;51.532;7.684;2023-03-05T06:14:27;32.63;;;18.60;;
70467;SDS011;57934;51.532;7.684;2023-03-05T06:16:53;31.15;;;17.55;;
70467;SDS011;57934;51.532;7.684;2023-03-05T06:19:19;33.53;;;17.73;;
70467;SDS011;57934;51.532;7.684;2023-03-05T06:21:45;40.25;;;18.02;;
70467;SDS011;57934;51.532;7.684;2023-03-05T06:24:11;35.35;;;17.38;;
70467;SDS011;57934;51.532;7.684;2023-03-05T06:26:38;33.30;;;17.88;;
70467;SDS011;57934;51.532;7.684;2023-03-05T06:29:04;32.53;;;17.00;;
70467;SDS011;57934;51.532;7.684;2023-03-05T06:31:30;26.27;;;15.85;;
70467;SDS011;57934;51.532;7.684;2023-03-05T06:33:57;27.90;;;16.20;;
70467;SDS011;57934;51.532;7.684;2023-03-05T06:36:28;32.22;;;15.88;;
70467;SDS011;57934;51.532;7.684;2023-03-05T06:38:54;33.20;;;14.57;;
70467;SDS011;57934;51.532;7.684;2023-03-05T06:41:23;29.20;;;13.50;;
70467;SDS011;57934;51.532;7.684;2023-03-05T06:43:51;31.02;;;13.65;;
70467;SDS011;57934;51.532;7.684;2023-03-05T06:46:19;30.33;;;14.43;;
70467;SDS011;57934;51.532;7.684;2023-03-05T06:48:51;32.42;;;14.15;;
70467;SDS011;57934;51.532;7.684;2023-03-05T06:51:23;30.88;;;13.93;;
70467;SDS011;57934;51.532;7.684;2023-03-05T06:53:52;24.00;;;12.73;;
70467;SDS011;57934;51.532;7.684;2023-03-05T06:56:19;29.85;;;12.23;;
70467;SDS011;57934;51.532;7.684;2023-03-05T06:58:46;26.20;;;11.30;;
70467;SDS011;57934;51.532;7.684;2023-03-05T07:01:14;25.27;;;11.90;;
70467;SDS011;57934;51.532;7.684;2023-03-05T07:03:41;27.92;;;10.98;;
70467;SDS011;57934;51.532;7.684;2023-03-05T07:06:08;19.95;;;10.85;;
70467;SDS011;57934;51.532;7.684;2023-03-05T07:08:36;20.88;;;10.48;;
70467;SDS011;57934;51.532;7.684;2023-03-05T07:11:03;24.35;;;10.45;;
70467;SDS011;57934;51.532;7.684;2023-03-05T07:13:34;24.65;;;10.18;;
70467;SDS011;57934;51.532;7.684;2023-03-05T07:16:03;24.23;;;12.20;;
70467;SDS011;57934;51.532;7.684;2023-03-05T07:18:33;25.73;;;10.30;;
70467;SDS011;57934;51.532;7.684;2023-03-05T07:21:01;21.58;;;10.65;;
70467;SDS011;57934;51.532;7.684;2023-03-05T07:23:29;28.17;;;12.45;;
70467;SDS011;57934;51.532;7.684;2023-03-05T07:25:55;23.13;;;13.38;;
70467;SDS011;57934;51.532;7.684;2023-03-05T07:28:21;17.85;;;12.07;;
70467;SDS011;57934;51.532;7.684;2023-03-05T07:31:01;26.00;;;15.00;;
70467;SDS011;57934;51.532;7.684;2023-03-05T07:33:36;21.13;;;14.07;;
70467;SDS011;57934;51.532;7.684;2023-03-05T07:36:03;24.30;;;15.18;;
70467;SDS011;57934;51.532;7.684;2023-03-05T07:38:31;24.10;;;15.00;;
70467;SDS011;57934;51.532;7.684;2023-03-05T07:41:01;24.10;;;15.40;;
70467;SDS011;57934;51.532;7.684;2023-03-05T07:43:29;21.98;;;12.95;;
70467;SDS011;57934;51.532;7.684;2023-03-05T07:45:55;17.33;;;11.65;;
70467;SDS011;57934;51.532;7.684;2023-03-05T07:48:21;20.92;;;10.95;;
70467;SDS011;57934;51.532;7.684;2023-03-05T07:50:48;19.45;;;11.32;;
70467;SDS011;57934;51.532;7.684;2023-03-05T07:53:14;22.55;;;13.25;;
70467;SDS011;57934;51.532;7.684;2023-03-05T07:55:43;25.95;;;14.00;;
70467;SDS011;57934;51.532;7.684;2023-03-05T07:58:11;25.65;;;16.40;;
70467;SDS011;57934;51.532;7.684;2023-03-05T08:00:38;33.83;;;17.25;;
70467;SDS011;57934;51.532;7.684;2023-03-05T08:03:05;34.03;;;18.48;;
70467;SDS011;57934;51.532;7.684;2023-03-05T08:05:31;28.60;;;18.95;;
70467;SDS011;57934;51.532;7.684;2023-03-05T08:07:57;31.77;;;18.15;;
70467;SDS011;57934;51.532;7.684;2023-03-05T08:10:24;37.55;;;20.83;;
70467;SDS011;57934;51.532;7.684;2023-03-05T08:12:50;27.95;;;17.80;;
70467;SDS011;57934;51.532;7.684;2023-03-05T08:15:16;28.38;;;18.45;;
70467;SDS011;57934;51.532;7.684;2023-03-05T08:17:42;28.75;;;17.75;;
70467;SDS011;57934;51.532;7.684;2023-03-05T08:20:08;31.02;;;18.35;;
70467;SDS011;57934;51.532;7.684;2023-03-05T08:22:36;33.85;;;19.75;;
70467;SDS011;57934;51.532;7.684;2023-03-05T08:25:03;29.77;;;18.08;;
70467;SDS011;57934;51.532;7.684;2023-03-05T08:27:30;40.33;;;19.70;;
70467;SDS011;57934;51.532;7.684;2023-03-05T08:29:56;32.60;;;19.90;;
70467;SDS011;57934;51.532;7.684;2023-03-05T08:32:23;31.50;;;19.38;;
70467;SDS011;57934;51.532;7.684;2023-03-05T08:34:49;31.42;;;17.88;;
70467;SDS011;57934;51.532;7.684;2023-03-05T08:37:15;29.52;;;17.73;;
70467;SDS011;57934;51.532;7.684;2023-03-05T08:39:41;30.73;;;17.85;;
70467;SDS011;57934;51.532;7.684;2023-03-05T08:42:07;28.83;;;16.95;;
70467;SDS011;57934;51.532;7.684;2023-03-05T08:44:33;22.88;;;16.63;;
70467;SDS011;57934;51.532;7.684;2023-03-05T08:46:59;28.13;;;16.42;;
70467;SDS011;57934;51.532;7.684;2023-03-05T08:49:25;25.73;;;16.65;;
70467;SDS011;57934;51.532;7.684;2023-03-05T08:51:51;27.60;;;16.30;;
70467;SDS011;57934;51.532;7.684;2023-03-05T08:54:18;31.88;;;16.23;;
70467;SDS011;57934;51.532;7.684;2023-03-05T08:56:44;22.45;;;15.10;;
70467;SDS011;57934;51.532;7.684;2023-03-05T08:59:10;21.83;;;12.63;;
70467;SDS011;57934;51.532;7.684;2023-03-05T09:01:37;20.10;;;11.98;;
70467;SDS011;57934;51.532;7.684;2023-03-05T09:04:03;16.92;;;11.35;;
70467;SDS011;57934;51.532;7.684;2023-03-05T09:06:29;20.95;;;10.32;;
70467;SDS011;57934;51.532;7.684;2023-03-05T09:08:55;16.65;;;9.02;;
70467;SDS011;57934;51.532;7.684;2023-03-05T09:11:21;16.52;;;8.48;;
70467;SDS011;57934;51.532;7.684;2023-03-05T09:13:47;17.33;;;10.15;;
70467;SDS011;57934;51.532;7.684;2023-03-05T09:16:14;18.35;;;11.30;;
70467;SDS011;57934;51.532;7.684;2023-03-05T09:18:42;17.55;;;10.98;;
70467;SDS011;57934;51.532;7.684;2023-03-05T09:21:09;19.98;;;12.70;;
70467;SDS011;57934;51.532;7.684;2023-03-05T09:23:37;21.60;;;13.07;;
70467;SDS011;57934;51.532;7.684;2023-03-05T09:26:08;20.55;;;12.85;;
70467;SDS011;57934;51.532;7.684;2023-03-05T09:28:37;18.73;;;12.40;;
70467;SDS011;57934;51.532;7.684;2023-03-05T09:31:04;18.63;;;12.70;;
70467;SDS011;57934;51.532;7.684;2023-03-05T09:33:32;23.65;;;13.45;;
70467;SDS011;57934;51.532;7.684;2023-03-05T09:35:59;23.58;;;12.93;;
70467;SDS011;57934;51.532;7.684;2023-03-05T09:38:26;18.40;;;10.90;;
70467;SDS011;57934;51.532;7.684;2023-03-05T09:41:01;20.67;;;11.15;;
70467;SDS011;57934;51.532;7.684;2023-03-05T09:48:51;12.30;;;8.63;;
70467;SDS011;57934;51.532;7.684;2023-03-05T09:51:25;14.38;;;7.88;;
70467;SDS011;57934;51.532;7.684;2023-03-05T09:54:00;13.13;;;8.05;;
70467;SDS011;57934;51.532;7.684;2023-03-05T09:56:35;18.17;;;8.00;;
70467;SDS011;57934;51.532;7.684;2023-03-05T10:01:37;12.85;;;7.47;;
70467;SDS011;57934;51.532;7.684;2023-03-05T10:15:14;10.63;;;6.15;;
70467;SDS011;57934;51.532;7.684;2023-03-05T10:20:57;10.32;;;5.82;;
70467;SDS011;57934;51.532;7.684;2023-03-05T10:35:18;3.60;;;3.08;;
70467;SDS011;57934;51.532;7.684;2023-03-05T10:43:28;5.40;;;3.08;;
70467;SDS011;57934;51.532;7.684;2023-03-05T10:45:57;4.30;;;2.78;;
70467;SDS011;57934;51.532;7.684;2023-03-05T10:54:03;4.68;;;2.40;;
70467;SDS011;57934;51.532;7.684;2023-03-05T10:56:40;4.45;;;2.10;;
70467;SDS011;57934;51.532;7.684;2023-03-05T10:59:06;3.55;;;2.15;;
70467;SDS011;57934;51.532;7.684;2023-03-05T11:01:32;6.68;;;2.50;;
70467;SDS011;57934;51.532;7.684;2023-03-05T11:06:31;4.18;;;3.38;;
70467;SDS011;57934;51.532;7.684;2023-03-05T11:14:46;7.45;;;5.00;;
70467;SDS011;57934;51.532;7.684;2023-03-05T11:25:48;8.02;;;5.35;;
70467;SDS011;57934;51.532;7.684;2023-03-05T11:28:17;9.93;;;5.95;;
70467;SDS011;57934;51.532;7.684;2023-03-05T11:30:52;13.57;;;6.07;;
70467;SDS011;57934;51.532;7.684;2023-03-05T11:33:24;9.27;;;6.25;;
70467;SDS011;57934;51.532;7.684;2023-03-05T11:35:51;8.43;;;6.47;;
70467;SDS011;57934;51.532;7.684;2023-03-05T11:38:23;9.20;;;4.90;;
70467;SDS011;57934;51.532;7.684;2023-03-05T11:40:53;4.95;;;4.45;;
70467;SDS011;57934;51.532;7.684;2023-03-05T11:43:23;6.15;;;3.92;;
70467;SDS011;57934;51.532;7.684;2023-03-05T11:45:52;4.80;;;3.53;;
70467;SDS011;57934;51.532;7.684;2023-03-05T11:48:45;5.57;;;2.90;;
70467;SDS011;57934;51.532;7.684;2023-03-05T11:51:15;2.83;;;2.30;;
70467;SDS011;57934;51.532;7.684;2023-03-05T11:53:46;4.38;;;2.28;;
70467;SDS011;57934;51.532;7.684;2023-03-05T11:56:20;5.20;;;2.58;;
70467;SDS011;57934;51.532;7.684;2023-03-05T11:59:18;2.63;;;1.58;;
70467;SDS011;57934;51.532;7.684;2023-03-05T12:01:50;2.50;;;1.80;;
70467;SDS011;57934;51.532;7.684;2023-03-05T12:04:19;8.00;;;2.15;;
70467;SDS011;57934;51.532;7.684;2023-03-05T12:06:51;4.50;;;1.80;;
70467;SDS011;57934;51.532;7.684;2023-03-05T12:12:28;3.47;;;2.10;;
70467;SDS011;57934;51.532;7.684;2023-03-05T12:17:59;5.35;;;2.30;;
70467;SDS011;57934;51.532;7.684;2023-03-05T12:20:41;5.57;;;2.53;;
70467;SDS011;57934;51.532;7.684;2023-03-05T12:23:27;2.90;;;2.38;;
70467;SDS011;57934;51.532;7.684;2023-03-05T12:25:54;3.17;;;2.63;;
70467;SDS011;57934;51.532;7.684;2023-03-05T12:38:43;6.40;;;3.65;;
70467;SDS011;57934;51.532;7.684;2023-03-05T12:46:43;8.18;;;4.60;;
70467;SDS011;57934;51.532;7.684;2023-03-05T12:49:28;7.03;;;4.00;;
70467;SDS011;57934;51.532;7.684;2023-03-05T12:51:58;4.95;;;3.35;;
70467;SDS011;57934;51.532;7.684;2023-03-05T12:54:30;4.50;;;3.35;;
70467;SDS011;57934;51.532;7.684;2023-03-05T12:57:02;4.00;;;2.83;;
70467;SDS011;57934;51.532;7.684;2023-03-05T12:59:37;5.30;;;2.80;;
70467;SDS011;57934;51.532;7.684;2023-03-05T13:05:56;2.65;;;2.45;;
70467;SDS011;57934;51.532;7.684;2023-03-05T13:08:24;2.60;;;2.40;;
70467;SDS011;57934;51.532;7.684;2023-03-05T13:10:52;2.45;;;2.00;;
70467;SDS011;57934;51.532;7.684;2023-03-05T13:13:21;5.20;;;2.47;;
70467;SDS011;57934;51.532;7.684;2023-03-05T13:15:50;6.28;;;2.88;;
70467;SDS011;57934;51.532;7.684;2023-03-05T13:18:18;5.15;;;2.70;;
70467;SDS011;57934;51.532;7.684;2023-03-05T13:21:06;7.65;;;4.60;;
70467;SDS011;57934;51.532;7.684;2023-03-05T13:23:37;4.45;;;2.90;;
70467;SDS011;57934;51.532;7.684;2023-03-05T13:26:15;4.68;;;2.22;;
70467;SDS011;57934;51.532;7.684;2023-03-05T13:31:43;7.43;;;2.50;;
70467;SDS011;57934;51.532;7.684;2023-03-05T13:36:43;2.70;;;2.50;;
70467;SDS011;57934;51.532;7.684;2023-03-05T13:39:19;6.40;;;3.20;;
70467;SDS011;57934;51.532;7.684;2023-03-05T13:44:39;5.90;;;3.17;;
70467;SDS011;57934;51.532;7.684;2023-03-05T13:47:14;7.10;;;3.13;;
70467;SDS011;57934;51.532;7.684;2023-03-05T13:49:43;6.10;;;3.38;;
70467;SDS011;57934;51.532;7.684;2023-03-05T13:52:10;5.65;;;2.80;;
70467;SDS011;57934;51.532;7.684;2023-03-05T13:54:36;5.93;;;3.22;;
70467;SDS011;57934;51.532;7.684;2023-03-05T13:57:04;4.15;;;2.80;;
70467;SDS011;57934;51.532;7.684;2023-03-05T13:59:35;4.70;;;2.97;;
70467;SDS011;57934;51.532;7.684;2023-03-05T14:02:13;5.53;;;2.72;;
70467;SDS011;57934;51.532;7.684;2023-03-05T14:04:43;3.38;;;2.40;;
70467;SDS011;57934;51.532;7.684;2023-03-05T14:07:53;3.20;;;2.55;;
70467;SDS011;57934;51.532;7.684;2023-03-05T14:12:59;6.15;;;2.80;;
70467;SDS011;57934;51.532;7.684;2023-03-05T14:15:32;5.13;;;2.30;;
70467;SDS011;57934;51.532;7.684;2023-03-05T14:20:38;4.03;;;2.38;;
70467;SDS011;57934;51.532;7.684;2023-03-05T14:25:50;2.63;;;2.15;;
70467;SDS011;57934;51.532;7.684;2023-03-05T14:30:45;5.07;;;2.50;;
70467;SDS011;57934;51.532;7.684;2023-03-05T14:33:12;5.88;;;2.05;;
70467;SDS011;57934;51.532;7.684;2023-03-05T14:35:40;3.17;;;2.15;;
70467;SDS011;57934;51.532;7.684;2023-03-05T14:38:17;5.45;;;2.50;;
70467;SDS011;57934;51.532;7.684;2023-03-05T14:40:48;5.65;;;2.63;;
70467;SDS011;57934;51.532;7.684;2023-03-05T14:43:14;5.75;;;2.58;;
70467;SDS011;57934;51.532;7.684;2023-03-05T14:45:41;5.72;;;2.95;;
70467;SDS011;57934;51.532;7.684;2023-03-05T14:48:09;3.72;;;2.40;;
70467;SDS011;57934;51.532;7.684;2023-03-05T14:50:38;7.60;;;2.95;;
70467;SDS011;57934;51.532;7.684;2023-03-05T14:53:17;7.88;;;2.85;;
70467;SDS011;57934;51.532;7.684;2023-03-05T14:55:47;4.20;;;3.47;;
70467;SDS011;57934;51.532;7.684;2023-03-05T14:58:16;10.05;;;3.47;;
70467;SDS011;57934;51.532;7.684;2023-03-05T15:00:49;5.83;;;3.43;;
70467;SDS011;57934;51.532;7.684;2023-03-05T15:03:19;2.92;;;2.72;;
70467;SDS011;57934;51.532;7.684;2023-03-05T15:05:47;3.67;;;3.03;;
70467;SDS011;57934;51.532;7.684;2023-03-05T15:08:19;5.13;;;3.63;;
70467;SDS011;57934;51.532;7.684;2023-03-05T15:10:49;8.07;;;4.45;;
70467;SDS011;57934;51.532;7.684;2023-03-05T15:13:16;4.60;;;4.10;;
70467;SDS011;57934;51.532;7.684;2023-03-05T15:15:42;6.00;;;3.72;;
70467;SDS011;57934;51.532;7.684;2023-03-05T15:18:14;5.30;;;4.18;;
70467;SDS011;57934;51.532;7.684;2023-03-05T15:20:42;4.75;;;4.05;;
70467;SDS011;57934;51.532;7.684;2023-03-05T15:23:09;7.68;;;5.22;;
70467;SDS011;57934;51.532;7.684;2023-03-05T15:25:37;7.43;;;4.95;;
70467;SDS011;57934;51.532;7.684;2023-03-05T15:28:04;6.70;;;5.15;;
70467;SDS011;57934;51.532;7.684;2023-03-05T15:30:34;6.80;;;4.70;;
70467;SDS011;57934;51.532;7.684;2023-03-05T15:33:04;12.68;;;10.43;;
70467;SDS011;57934;51.532;7.684;2023-03-05T15:35:32;7.93;;;4.88;;
70467;SDS011;57934;51.532;7.684;2023-03-05T15:37:58;7.53;;;4.60;;
70467;SDS011;57934;51.532;7.684;2023-03-05T15:40:25;9.40;;;4.47;;
70467;SDS011;57934;51.532;7.684;2023-03-05T15:42:55;7.25;;;4.75;;
70467;SDS011;57934;51.532;7.684;2023-03-05T15:45:22;8.85;;;4.82;;
70467;SDS011;57934;51.532;7.684;2023-03-05T15:47:48;5.53;;;4.50;;
70467;SDS011;57934;51.532;7.684;2023-03-05T15:50:15;9.10;;;5.00;;
70467;SDS011;57934;51.532;7.684;2023-03-05T15:52:41;8.85;;;4.00;;
70467;SDS011;57934;51.532;7.684;2023-03-05T15:55:08;6.47;;;3.95;;
70467;SDS011;57934;51.532;7.684;2023-03-05T15:57:35;5.80;;;3.58;;
70467;SDS011;57934;51.532;7.684;2023-03-05T16:00:03;5.13;;;3.83;;
70467;SDS011;57934;51.532;7.684;2023-03-05T16:02:35;5.90;;;3.33;;
70467;SDS011;57934;51.532;7.684;2023-03-05T16:05:02;5.60;;;3.60;;
70467;SDS011;57934;51.532;7.684;2023-03-05T16:07:28;7.63;;;3.65;;
70467;SDS011;57934;51.532;7.684;2023-03-05T16:09:55;6.50;;;3.90;;
70467;SDS011;57934;51.532;7.684;2023-03-05T16:12:24;9.23;;;3.72;;
70467;SDS011;57934;51.532;7.684;2023-03-05T16:14:54;6.03;;;4.68;;
70467;SDS011;57934;51.532;7.684;2023-03-05T16:17:20;6.95;;;4.97;;
70467;SDS011;57934;51.532;7.684;2023-03-05T16:19:48;6.13;;;5.18;;
70467;SDS011;57934;51.532;7.684;2023-03-05T16:22:18;7.18;;;6.15;;
70467;SDS011;57934;51.532;7.684;2023-03-05T16:24:45;7.43;;;5.70;;
70467;SDS011;57934;51.532;7.684;2023-03-05T16:27:11;7.78;;;6.03;;
70467;SDS011;57934;51.532;7.684;2023-03-05T16:29:37;11.13;;;6.80;;
70467;SDS011;57934;51.532;7.684;2023-03-05T16:32:04;11.10;;;7.70;;
70467;SDS011;57934;51.532;7.684;2023-03-05T16:34:30;9.50;;;7.53;;
70467;SDS011;57934;51.532;7.684;2023-03-05T16:36:59;12.43;;;8.32;;